createdAt,value
2023-04-21T00:00:18.337Z,13.90
2023-04-21T00:02:51.392Z,14.27
2023-04-21T00:05:24.736Z,11.63
2023-04-21T00:07:57.919Z,11.33
2023-04-21T00:10:30.806Z,13.43
2023-04-21T00:13:03.785Z,16.07
2023-04-21T00:15:37.995Z,10.37
2023-04-21T00:18:11.192Z,13.47
2023-04-21T00:20:47.097Z,12.33
2023-04-21T00:23:23.928Z,14.43
2023-04-21T00:25:56.918Z,11.03
2023-04-21T00:28:29.817Z,18.20
2023-04-21T00:31:04.153Z,15.13
2023-04-21T00:33:37.004Z,11.47
2023-04-21T00:36:12.769Z,15.30
2023-04-21T00:38:45.853Z,14.33
2023-04-21T00:41:18.837Z,11.40
2023-04-21T00:44:01.401Z,14.97
2023-04-21T00:46:35.907Z,12.27
2023-04-21T00:49:08.862Z,13.87
2023-04-21T00:51:44.391Z,15.80
2023-04-21T00:54:18.322Z,15.23
2023-04-21T00:56:51.222Z,13.07
2023-04-21T00:59:24.200Z,14.70
2023-04-21T01:02:00.562Z,15.37
2023-04-21T01:04:38.886Z,12.20
2023-04-21T01:07:11.688Z,13.80
2023-04-21T01:09:44.532Z,16.07
2023-04-21T01:12:17.413Z,11.30
2023-04-21T01:14:50.666Z,12.47
2023-04-21T01:17:24.713Z,13.57
2023-04-21T01:20:00.683Z,14.63
2023-04-21T01:22:35.180Z,15.73
2023-04-21T01:25:08.971Z,13.30
2023-04-21T01:27:44.134Z,13.77
2023-04-21T01:30:19.786Z,13.23
2023-04-21T01:32:52.724Z,12.33
2023-04-21T01:35:25.555Z,16.37
2023-04-21T01:38:00.002Z,16.17
2023-04-21T01:40:40.637Z,14.67
2023-04-21T01:43:13.637Z,14.20
2023-04-21T01:45:46.730Z,13.20
2023-04-21T01:48:19.608Z,12.90
2023-04-21T01:50:52.481Z,16.40
2023-04-21T01:53:26.899Z,12.93
2023-04-21T01:55:59.844Z,14.63
2023-04-21T01:58:32.986Z,13.77
2023-04-21T02:01:05.914Z,14.77
2023-04-21T02:03:39.002Z,12.97
2023-04-21T02:06:12.038Z,13.13
2023-04-21T02:08:46.425Z,15.37
2023-04-21T02:11:20.748Z,14.17
2023-04-21T02:13:53.982Z,11.63
2023-04-21T02:16:27.103Z,13.57
2023-04-21T02:19:00.084Z,12.50
2023-04-21T02:21:33.468Z,14.67
2023-04-21T02:24:07.989Z,14.30
2023-04-21T02:26:40.771Z,11.53
2023-04-21T02:29:13.565Z,13.93
2023-04-21T02:31:57.813Z,17.03
2023-04-21T02:34:33.892Z,14.47
2023-04-21T02:37:06.728Z,11.83
2023-04-21T02:39:40.778Z,14.83
2023-04-21T02:42:15.500Z,14.30
2023-04-21T02:44:48.433Z,13.13
2023-04-21T02:47:21.377Z,17.27
2023-04-21T02:49:54.318Z,17.07
2023-04-21T02:52:27.941Z,12.40
2023-04-21T02:55:06.676Z,15.77
2023-04-21T02:57:39.847Z,13.43
2023-04-21T03:00:14.024Z,13.77
2023-04-21T03:02:47.155Z,14.13
2023-04-21T03:05:22.787Z,12.13
2023-04-21T03:07:55.596Z,15.93
2023-04-21T03:10:29.770Z,12.33
2023-04-21T03:13:02.655Z,15.93
2023-04-21T03:15:35.415Z,14.63
2023-04-21T03:18:08.147Z,12.60
2023-04-21T03:20:41.008Z,12.90
2023-04-21T03:23:13.891Z,15.60
2023-04-21T03:25:48.145Z,13.90
2023-04-21T03:28:23.450Z,12.83
2023-04-21T03:30:58.786Z,16.00
2023-04-21T03:33:31.592Z,17.57
2023-04-21T03:36:07.788Z,17.73
2023-04-21T03:38:40.537Z,12.77
2023-04-21T03:41:14.690Z,13.43
2023-04-21T03:43:49.770Z,13.83
2023-04-21T03:46:22.914Z,15.57
2023-04-21T03:48:55.770Z,17.07
2023-04-21T03:51:28.622Z,16.00
2023-04-21T03:54:01.492Z,17.13
2023-04-21T03:56:38.158Z,18.40
2023-04-21T03:59:11.145Z,13.77
2023-04-21T04:01:44.010Z,14.57
2023-04-21T04:04:17.168Z,14.30
2023-04-21T04:06:50.106Z,17.03
2023-04-21T04:09:23.320Z,14.87
2023-04-21T04:11:57.611Z,15.80
2023-04-21T04:14:30.469Z,15.73
2023-04-21T04:17:03.420Z,14.03
2023-04-21T04:19:36.741Z,16.93
2023-04-21T04:22:09.529Z,13.13
2023-04-21T04:24:45.198Z,16.67
2023-04-21T04:27:20.389Z,15.77
2023-04-21T04:29:53.184Z,13.47
2023-04-21T04:32:28.498Z,16.70
2023-04-21T04:35:01.555Z,13.07
2023-04-21T04:37:35.310Z,16.20
2023-04-21T04:40:10.301Z,15.17
2023-04-21T04:42:45.995Z,15.63
2023-04-21T04:45:22.253Z,13.37
2023-04-21T04:47:55.355Z,16.23
2023-04-21T04:50:28.288Z,16.63
2023-04-21T04:53:01.854Z,13.40
2023-04-21T04:55:34.756Z,13.17
2023-04-21T04:58:09.344Z,16.23
2023-04-21T05:00:42.219Z,15.00
2023-04-21T05:03:15.228Z,17.17
2023-04-21T05:05:48.427Z,13.70
2023-04-21T05:08:21.510Z,16.40
2023-04-21T05:10:54.368Z,15.30
2023-04-21T05:13:28.629Z,12.87
2023-04-21T05:16:02.400Z,14.80
2023-04-21T05:18:35.222Z,14.47
2023-04-21T05:21:08.458Z,13.10
2023-04-21T05:23:41.268Z,14.13
2023-04-21T05:26:14.126Z,14.40
2023-04-21T05:28:51.341Z,13.87
2023-04-21T05:31:26.527Z,13.90
2023-04-21T05:33:59.535Z,15.77
2023-04-21T05:36:32.598Z,14.90
2023-04-21T05:39:06.372Z,13.40
2023-04-21T05:41:39.188Z,14.10
2023-04-21T05:44:13.775Z,13.17
2023-04-21T05:46:46.709Z,13.60
2023-04-21T05:49:19.567Z,14.97
2023-04-21T05:51:52.355Z,16.70
2023-04-21T05:54:28.121Z,14.67
2023-04-21T05:57:04.356Z,16.70
2023-04-21T05:59:38.819Z,13.17
2023-04-21T06:02:11.774Z,16.83
2023-04-21T06:04:44.728Z,16.17
2023-04-21T06:07:19.876Z,14.77
2023-04-21T06:09:52.709Z,13.77
2023-04-21T06:12:25.655Z,12.80
2023-04-21T06:15:02.916Z,17.83
2023-04-21T06:17:35.855Z,14.20
2023-04-21T06:20:09.879Z,13.63
2023-04-21T06:22:42.662Z,18.07
2023-04-21T06:25:15.577Z,14.60
2023-04-21T06:27:50.989Z,18.73
2023-04-21T06:30:25.307Z,15.37
2023-04-21T06:32:58.800Z,16.00
2023-04-21T06:35:33.871Z,20.50
2023-04-21T06:38:06.831Z,13.87
2023-04-21T06:40:39.608Z,14.60
2023-04-21T06:43:12.405Z,14.00
2023-04-21T06:45:47.505Z,22.37
2023-04-21T06:48:20.321Z,15.23
2023-04-21T06:50:53.096Z,16.13
2023-04-21T06:53:25.930Z,14.77
2023-04-21T06:55:59.079Z,20.23
2023-04-21T06:58:31.931Z,18.03
2023-04-21T07:01:06.390Z,15.50
2023-04-21T07:03:42.203Z,17.27
2023-04-21T07:06:15.084Z,12.70
2023-04-21T07:08:48.843Z,13.77
2023-04-21T07:11:21.903Z,12.77
2023-04-21T07:13:56.060Z,16.40
2023-04-21T07:16:30.383Z,14.77
2023-04-21T07:19:03.097Z,14.97
2023-04-21T07:21:36.390Z,19.23
2023-04-21T07:24:11.402Z,12.67
2023-04-21T07:26:44.106Z,11.90
2023-04-21T07:29:17.403Z,14.17
2023-04-21T07:31:51.765Z,15.60
2023-04-21T07:34:24.600Z,12.83
2023-04-21T07:36:57.874Z,15.97
2023-04-21T07:39:30.914Z,16.00
2023-04-21T07:42:03.735Z,12.20
2023-04-21T07:44:36.519Z,15.00
2023-04-21T07:47:10.801Z,13.60
2023-04-21T07:49:43.728Z,16.63
2023-04-21T07:52:16.712Z,15.43
2023-04-21T07:54:49.596Z,20.47
2023-04-21T07:57:22.413Z,24.97
2023-04-21T07:59:55.316Z,19.57
2023-04-21T08:02:29.905Z,16.03
2023-04-21T08:05:02.942Z,16.47
2023-04-21T08:07:35.914Z,16.23
2023-04-21T08:10:10.177Z,14.53
2023-04-21T08:12:43.019Z,21.03
2023-04-21T08:15:16.146Z,14.17
2023-04-21T08:17:52.735Z,13.60
2023-04-21T08:20:25.725Z,14.70
2023-04-21T08:22:59.092Z,15.10
2023-04-21T08:25:32.055Z,12.30
2023-04-21T08:28:05.348Z,14.47
2023-04-21T08:30:38.641Z,14.87
2023-04-21T08:33:13.853Z,10.90
2023-04-21T08:36:01.306Z,15.30
2023-04-21T08:38:37.959Z,11.87
2023-04-21T08:41:10.843Z,11.80
2023-04-21T08:43:43.845Z,13.80
2023-04-21T08:46:17.686Z,13.07
2023-04-21T08:48:54.574Z,11.87
2023-04-21T08:51:30.191Z,15.80
2023-04-21T08:54:03.015Z,13.03
2023-04-21T08:56:36.006Z,12.63
2023-04-21T08:59:11.245Z,13.83
2023-04-21T09:02:03.147Z,10.73
2023-04-21T09:04:40.288Z,11.67
2023-04-21T09:07:14.372Z,11.93
2023-04-21T09:09:53.650Z,11.67
2023-04-21T09:12:29.165Z,13.47
2023-04-21T09:15:05.518Z,13.20
2023-04-21T09:17:38.761Z,11.30
2023-04-21T09:20:18.008Z,11.73
2023-04-21T09:22:51.176Z,11.23
2023-04-21T09:25:24.451Z,11.97
2023-04-21T09:27:57.209Z,13.17
2023-04-21T09:30:30.069Z,12.57
2023-04-21T09:33:08.262Z,16.37
2023-04-21T09:35:48.075Z,10.63
2023-04-21T09:38:23.362Z,10.40
2023-04-21T09:40:59.523Z,12.40
2023-04-21T09:43:32.465Z,11.10
2023-04-21T09:46:07.291Z,11.80
2023-04-21T09:48:41.298Z,12.40
2023-04-21T09:51:25.423Z,11.77
2023-04-21T09:54:15.696Z,12.50
2023-04-21T09:56:57.617Z,10.40
2023-04-21T09:59:31.696Z,13.67
2023-04-21T10:02:07.020Z,11.50
2023-04-21T10:04:42.501Z,15.67
2023-04-21T10:07:16.906Z,12.70
2023-04-21T10:09:51.971Z,14.40
2023-04-21T10:12:25.999Z,10.57
2023-04-21T10:14:58.798Z,10.07
2023-04-21T10:17:36.689Z,9.67
2023-04-21T10:20:10.315Z,9.20
2023-04-21T10:22:44.484Z,9.67
2023-04-21T10:25:18.323Z,11.10
2023-04-21T10:27:51.473Z,11.93
2023-04-21T10:30:26.923Z,9.70
2023-04-21T10:33:06.700Z,10.53
2023-04-21T10:35:59.592Z,11.83
2023-04-21T10:38:41.344Z,11.50
2023-04-21T10:41:27.532Z,10.80
2023-04-21T10:44:09.400Z,9.13
2023-04-21T10:46:46.365Z,11.07
2023-04-21T10:49:23.348Z,9.63
2023-04-21T10:52:06.304Z,10.50
2023-04-21T10:54:44.968Z,10.73
2023-04-21T10:57:19.544Z,12.40
2023-04-21T10:59:54.811Z,9.27
2023-04-21T11:02:28.203Z,10.37
2023-04-21T11:05:02.033Z,9.73
2023-04-21T11:07:35.024Z,9.30
2023-04-21T11:10:11.175Z,9.53
2023-04-21T11:12:44.087Z,13.57
2023-04-21T11:15:16.988Z,11.83
2023-04-21T11:17:51.351Z,9.13
2023-04-21T11:20:24.462Z,11.50
2023-04-21T11:22:57.502Z,14.53
2023-04-21T11:25:31.828Z,14.00
2023-04-21T11:28:06.306Z,12.87
2023-04-21T11:30:39.222Z,9.67
2023-04-21T11:33:12.219Z,8.20
2023-04-21T11:35:45.360Z,9.40
2023-04-21T11:38:19.016Z,8.67
2023-04-21T11:40:53.918Z,8.50
2023-04-21T11:43:26.832Z,10.60
2023-04-21T11:46:12.198Z,9.23
2023-04-21T11:48:45.234Z,10.57
2023-04-21T11:51:20.012Z,8.00
2023-04-21T11:53:55.026Z,9.23
2023-04-21T11:56:29.798Z,8.00
2023-04-21T11:59:07.349Z,9.27
2023-04-21T12:01:46.744Z,9.00
2023-04-21T12:04:20.494Z,11.87
2023-04-21T12:06:57.596Z,10.43
2023-04-21T12:09:30.943Z,9.83
2023-04-21T12:12:06.189Z,11.93
2023-04-21T12:14:39.850Z,9.30
2023-04-21T12:17:13.621Z,13.37
2023-04-21T12:19:46.585Z,10.33
2023-04-21T12:22:19.612Z,9.80
2023-04-21T12:24:52.529Z,9.77
2023-04-21T12:27:27.582Z,9.90
2023-04-21T12:30:00.548Z,12.50
2023-04-21T12:32:33.466Z,13.13
2023-04-21T12:35:06.904Z,7.80
2023-04-21T12:37:39.915Z,8.00
2023-04-21T12:40:13.136Z,10.23
2023-04-21T12:42:50.118Z,7.77
2023-04-21T12:45:23.308Z,9.07
2023-04-21T12:47:58.759Z,10.63
2023-04-21T12:50:31.838Z,10.50
2023-04-21T12:53:04.776Z,7.97
2023-04-21T12:55:38.473Z,7.80
2023-04-21T12:58:15.656Z,8.57
2023-04-21T13:00:48.987Z,8.63
2023-04-21T13:03:21.989Z,7.10
2023-04-21T13:05:54.998Z,8.10
2023-04-21T13:08:27.973Z,8.33
2023-04-21T13:11:01.092Z,11.83
2023-04-21T13:13:35.374Z,8.97
2023-04-21T13:16:08.475Z,7.53
2023-04-21T13:18:41.761Z,7.80
2023-04-21T13:21:17.113Z,7.10
2023-04-21T13:23:49.878Z,7.40
2023-04-21T13:26:22.958Z,11.27
2023-04-21T13:28:57.189Z,7.17
2023-04-21T13:31:30.238Z,8.83
2023-04-21T13:34:03.691Z,7.33
2023-04-21T13:36:36.590Z,6.90
2023-04-21T13:39:10.225Z,7.40
2023-04-21T13:41:43.083Z,7.27
2023-04-21T13:44:17.417Z,7.13
2023-04-21T13:46:52.357Z,8.73
2023-04-21T13:49:25.344Z,7.67
2023-04-21T13:51:58.374Z,8.97
2023-04-21T13:54:31.511Z,11.37
2023-04-21T13:57:05.707Z,10.87
2023-04-21T13:59:41.624Z,10.73
2023-04-21T14:02:15.054Z,8.97
2023-04-21T14:04:48.152Z,7.87
2023-04-21T14:07:23.105Z,6.97
2023-04-21T14:09:59.259Z,7.70
2023-04-21T14:12:32.391Z,10.30
2023-04-21T14:15:07.474Z,11.27
2023-04-21T14:17:40.481Z,11.77
2023-04-21T14:20:13.586Z,9.53
2023-04-21T14:22:46.844Z,7.20
2023-04-21T14:25:22.928Z,8.17
2023-04-21T14:27:56.217Z,7.30
2023-04-21T14:30:30.591Z,7.57
2023-04-21T14:33:03.776Z,9.17
2023-04-21T14:35:37.676Z,6.90
2023-04-21T14:38:10.568Z,10.47
2023-04-21T14:40:43.384Z,9.50
2023-04-21T14:43:19.218Z,10.37
2023-04-21T14:45:53.761Z,9.80
2023-04-21T14:48:27.281Z,11.47
2023-04-21T14:51:03.136Z,7.93
2023-04-21T14:53:36.191Z,14.03
2023-04-21T14:56:09.449Z,9.63
2023-04-21T14:58:42.257Z,6.93
2023-04-21T15:01:16.770Z,9.37
2023-04-21T15:03:49.926Z,8.57
2023-04-21T15:06:22.869Z,7.67
2023-04-21T15:08:56.195Z,7.07
2023-04-21T15:11:32.244Z,7.47
2023-04-21T15:14:05.286Z,7.63
2023-04-21T15:16:39.829Z,10.03
2023-04-21T15:19:13.744Z,7.20
2023-04-21T15:21:46.926Z,7.13
2023-04-21T15:24:19.848Z,8.47
2023-04-21T15:26:53.221Z,7.47
2023-04-21T15:29:29.334Z,7.23
2023-04-21T15:32:03.814Z,7.60
2023-04-21T15:34:37.672Z,6.90
2023-04-21T15:37:10.630Z,11.63
2023-04-21T15:39:45.121Z,7.43
2023-04-21T15:42:18.686Z,6.00
2023-04-21T15:44:53.818Z,6.23
2023-04-21T15:47:28.461Z,7.17
2023-04-21T15:50:01.614Z,9.80
2023-04-21T15:52:36.693Z,6.60
2023-04-21T15:55:11.698Z,7.73
2023-04-21T15:57:44.669Z,6.60
2023-04-21T16:00:17.850Z,8.67
2023-04-21T16:02:52.636Z,6.23
2023-04-21T16:05:29.095Z,6.80
2023-04-21T16:08:02.619Z,6.73
2023-04-21T16:10:36.097Z,10.27
2023-04-21T16:13:09.115Z,6.60
2023-04-21T16:15:42.254Z,7.43
2023-04-21T16:18:17.044Z,10.17
2023-04-21T16:20:50.106Z,7.10
2023-04-21T16:23:26.341Z,8.83
2023-04-21T16:25:59.343Z,6.90
2023-04-21T16:28:32.299Z,7.53
2023-04-21T16:31:05.860Z,7.67
2023-04-21T16:33:40.034Z,7.30
2023-04-21T16:36:13.176Z,7.23
2023-04-21T16:38:46.274Z,7.23
2023-04-21T16:41:21.030Z,9.00
2023-04-21T16:43:54.187Z,8.63
2023-04-21T16:46:27.189Z,7.03
2023-04-21T16:49:01.508Z,6.60
2023-04-21T16:51:34.609Z,6.67
2023-04-21T16:54:07.522Z,7.80
2023-04-21T16:56:41.096Z,6.90
2023-04-21T16:59:14.337Z,7.83
2023-04-21T17:01:47.099Z,6.33
2023-04-21T17:04:21.975Z,7.30
2023-04-21T17:06:55.152Z,8.17
2023-04-21T17:09:30.791Z,8.20
2023-04-21T17:12:03.596Z,8.07
2023-04-21T17:14:37.158Z,8.57
2023-04-21T17:17:10.808Z,7.63
2023-04-21T17:19:45.092Z,6.57
2023-04-21T17:22:18.107Z,7.50
2023-04-21T17:24:53.603Z,7.90
2023-04-21T17:27:27.144Z,9.30
2023-04-21T17:30:00.030Z,7.80
2023-04-21T17:32:34.313Z,5.53
2023-04-21T17:35:09.420Z,7.13
2023-04-21T17:37:44.425Z,8.63
2023-04-21T17:40:19.646Z,7.23
2023-04-21T17:42:52.945Z,6.90
2023-04-21T17:45:26.158Z,6.67
2023-04-21T17:47:59.064Z,9.63
2023-04-21T17:50:33.525Z,8.37
2023-04-21T17:53:06.363Z,6.90
2023-04-21T17:55:39.906Z,10.80
2023-04-21T17:58:15.811Z,7.77
2023-04-21T18:00:49.423Z,6.83
2023-04-21T18:03:25.682Z,7.33
2023-04-21T18:06:00.364Z,8.00
2023-04-21T18:08:46.212Z,7.77
2023-04-21T18:11:19.207Z,11.87
2023-04-21T18:13:55.215Z,8.77
2023-04-21T18:16:28.457Z,8.43
2023-04-21T18:19:01.618Z,7.57
2023-04-21T18:21:36.341Z,9.23
2023-04-21T18:24:09.318Z,7.07
2023-04-21T18:26:42.399Z,10.73
2023-04-21T18:29:17.862Z,7.83
2023-04-21T18:31:51.245Z,9.73
2023-04-21T18:34:26.300Z,8.33
2023-04-21T18:37:00.733Z,7.80
2023-04-21T18:39:35.703Z,8.37
2023-04-21T18:42:08.626Z,8.50
2023-04-21T18:44:41.600Z,8.80
2023-04-21T18:47:15.588Z,9.50
2023-04-21T18:49:48.638Z,12.23
2023-04-21T18:52:23.032Z,25.00
2023-04-21T18:54:56.660Z,14.27
2023-04-21T18:57:30.538Z,9.37
2023-04-21T19:00:03.759Z,10.20
2023-04-21T19:03:15.199Z,8.37
2023-04-21T19:05:48.308Z,9.47
2023-04-21T19:08:40.844Z,9.13
2023-04-21T19:11:16.202Z,15.43
2023-04-21T19:13:49.696Z,8.33
2023-04-21T19:16:22.834Z,8.43
2023-04-21T19:19:03.468Z,14.90
2023-04-21T19:21:36.512Z,12.50
2023-04-21T19:24:10.764Z,8.67
2023-04-21T19:26:43.981Z,10.60
2023-04-21T19:29:17.134Z,11.03
2023-04-21T19:32:07.969Z,7.80
2023-04-21T19:34:41.379Z,8.17
2023-04-21T19:37:14.734Z,8.97
2023-04-21T19:39:49.274Z,9.93
2023-04-21T19:42:22.956Z,7.20
2023-04-21T19:44:55.804Z,8.63
2023-04-21T19:47:29.358Z,7.83
2023-04-21T19:50:02.393Z,6.80
2023-04-21T19:52:35.797Z,6.77
2023-04-21T19:55:10.525Z,8.53
2023-04-21T19:57:44.530Z,7.70
2023-04-21T20:00:17.992Z,7.17
2023-04-21T20:02:51.735Z,6.00
2023-04-21T20:05:24.592Z,5.37
2023-04-21T20:07:57.459Z,7.03
2023-04-21T20:10:31.889Z,7.70
2023-04-21T20:13:04.904Z,7.47
2023-04-21T20:15:39.562Z,6.90
2023-04-21T20:18:13.056Z,6.23
2023-04-21T20:20:46.166Z,8.40
2023-04-21T20:23:19.280Z,7.40
2023-04-21T20:25:53.429Z,7.07
2023-04-21T20:28:27.583Z,8.77
2023-04-21T20:31:00.676Z,6.17
2023-04-21T20:33:33.972Z,6.80
2023-04-21T20:36:08.422Z,6.60
2023-04-21T20:38:41.286Z,12.30
2023-04-21T20:41:15.689Z,11.17
2023-04-21T20:43:48.763Z,9.90
2023-04-21T20:46:21.693Z,7.43
2023-04-21T20:48:54.503Z,12.77
2023-04-21T20:51:27.651Z,7.77
2023-04-21T20:54:01.070Z,9.50
2023-04-21T20:56:35.727Z,7.83
2023-04-21T20:59:08.563Z,8.60
2023-04-21T21:01:47.477Z,7.97
2023-04-21T21:04:20.621Z,7.50
2023-04-21T21:06:56.671Z,8.00
2023-04-21T21:09:29.523Z,6.37
2023-04-21T21:12:03.726Z,6.70
2023-04-21T21:14:36.614Z,8.13
2023-04-21T21:17:10.035Z,7.13
2023-04-21T21:19:43.221Z,11.97
2023-04-21T21:22:16.239Z,6.83
2023-04-21T21:24:50.518Z,7.07
2023-04-21T21:27:24.687Z,9.00
2023-04-21T21:29:57.563Z,6.70
2023-04-21T21:32:30.765Z,7.60
2023-04-21T21:35:04.059Z,6.43
2023-04-21T21:37:37.308Z,10.20
2023-04-21T21:40:10.917Z,10.20
2023-04-21T21:42:45.312Z,9.67
2023-04-21T21:45:18.424Z,7.90
2023-04-21T21:47:51.347Z,9.00
2023-04-21T21:50:24.699Z,7.97
2023-04-21T21:52:59.545Z,10.50
2023-04-21T21:55:32.496Z,8.40
2023-04-21T21:58:08.067Z,8.87
2023-04-21T22:00:41.663Z,8.77
2023-04-21T22:03:14.847Z,7.93
2023-04-21T22:05:47.888Z,9.70
2023-04-21T22:08:20.742Z,8.17
2023-04-21T22:10:53.612Z,8.70
2023-04-21T22:13:30.588Z,8.97
2023-04-21T22:16:09.036Z,8.33
2023-04-21T22:18:43.092Z,8.57
2023-04-21T22:21:17.208Z,8.73
2023-04-21T22:23:51.174Z,9.70
2023-04-21T22:26:24.092Z,8.37
2023-04-21T22:28:58.312Z,10.10
2023-04-21T22:31:31.382Z,8.00
2023-04-21T22:34:04.298Z,7.83
2023-04-21T22:36:37.329Z,8.97
2023-04-21T22:39:14.184Z,9.10
2023-04-21T22:41:47.137Z,7.27
2023-04-21T22:44:21.585Z,13.03
2023-04-21T22:46:54.780Z,9.07
2023-04-21T22:49:27.764Z,8.53
2023-04-21T22:52:00.769Z,7.30
2023-04-21T22:54:42.749Z,10.70
2023-04-21T22:57:15.817Z,9.00
2023-04-21T22:59:50.342Z,7.07
2023-04-21T23:02:23.131Z,7.50
2023-04-21T23:04:56.151Z,8.23
2023-04-21T23:07:29.057Z,8.03
2023-04-21T23:10:01.953Z,7.90
2023-04-21T23:12:34.779Z,8.03
2023-04-21T23:15:09.725Z,7.90
2023-04-21T23:17:45.241Z,10.37
2023-04-21T23:20:18.139Z,9.00
2023-04-21T23:22:51.312Z,11.77
2023-04-21T23:25:24.200Z,7.97
2023-04-21T23:27:57.143Z,9.33
2023-04-21T23:30:31.397Z,7.97
2023-04-21T23:33:04.292Z,7.90
2023-04-21T23:35:37.128Z,9.57
2023-04-21T23:38:12.834Z,8.83
2023-04-21T23:40:45.639Z,7.30
2023-04-21T23:43:18.517Z,7.93
2023-04-21T23:45:55.450Z,10.10
2023-04-21T23:48:28.373Z,8.10
2023-04-21T23:51:01.502Z,7.03
2023-04-21T23:53:34.454Z,7.63
2023-04-21T23:56:07.632Z,8.33
2023-04-21T23:58:40.761Z,8.03
